Cemaes Bay, United Kingdom
Current Conditions -  °F | °C
As of 1:50 PM on Thursday 18 Dec 2014 (Local Time) from EGOV Reporting Station
Overcast Overcast  
Wind Chill: 54°   Ceiling: 7500
Heat Index: 54°   Visibility: 6mi
Dew Point: 52°   Wind: 29mph
Humidity: 94%   Direction: 210°SSW
Pressure: 29.59"   Gusts: NA
Location:  53.41°N, 4.46°W
Report Text: EGOV 181350Z 21025KT 9999 FEW007 OVC075 12/11 Q1002 BLU NOSIG
Loading
Personal Weather Stations






























Interactive Weather Map New forecast layout! Learn more

10-Day Weather Forecast

Advertisements
Track Severe Weather on mobile